Time;durP1;ratioP1;P1;durP2;ratioP2;P2;SDS_P1;SDS_P2;PMS_P1;PMS_P2;Temp;Humidity;BMP_temperature;BMP_pressure;BME280_temperature;BME280_humidity;BME280_pressure;Samples;Min_cycle;Max_cycle;Signal;HPM_P1;HPM_P2
2021/03/24 00:01:25;;;;;;;39.47;17.65;;;5.40;99.90;;;;;;5075575;28;20046;-80
2021/03/24 00:03:51;;;;;;;78.77;16.23;;;5.40;99.90;;;;;;5074404;28;20016;-79
2021/03/24 00:06:18;;;;;;;30.52;14.73;;;5.30;99.90;;;;;;5075565;28;20036;-80
2021/03/24 00:08:43;;;;;;;34.25;15.55;;;5.30;99.90;;;;;;5072919;28;20021;-80
2021/03/24 00:11:10;;;;;;;29.27;19.08;;;5.30;99.90;;;;;;5074317;28;20115;-80
2021/03/24 00:13:36;;;;;;;29.05;17.40;;;5.20;99.90;;;;;;5074074;28;20017;-80
2021/03/24 00:16:03;;;;;;;46.85;15.73;;;5.20;99.90;;;;;;5075024;28;20094;-80
2021/03/24 00:18:29;;;;;;;42.80;22.77;;;5.10;99.90;;;;;;5073839;28;20017;-80
2021/03/24 00:20:55;;;;;;;67.20;38.40;;;5.10;99.90;;;;;;5074222;28;20167;-80
2021/03/24 00:23:21;;;;;;;65.80;37.75;;;5.10;99.90;;;;;;5073786;28;20024;-80
2021/03/24 00:25:47;;;;;;;67.53;36.65;;;5.00;99.90;;;;;;5075179;28;20388;-80
2021/03/24 00:28:13;;;;;;;52.95;30.58;;;5.00;99.90;;;;;;5075225;28;20108;-80
2021/03/24 00:30:43;;;;;;;39.83;24.77;;;5.00;99.90;;;;;;5075030;28;20013;-80
2021/03/24 00:33:11;;;;;;;36.20;21.70;;;4.90;99.90;;;;;;5075290;28;20426;-80
2021/03/24 00:35:37;;;;;;;33.15;21.25;;;4.80;99.90;;;;;;5073510;28;20085;-80
2021/03/24 00:38:03;;;;;;;49.42;27.75;;;4.90;99.90;;;;;;5073794;28;20528;-80
2021/03/24 00:40:35;;;;;;;62.70;35.60;;;4.90;99.90;;;;;;5073565;28;20531;-79
2021/03/24 00:43:01;;;;;;;59.78;33.80;;;4.90;99.90;;;;;;5074915;28;20027;-80
2021/03/24 00:45:27;;;;;;;50.90;29.67;;;4.80;99.90;;;;;;5073538;28;20009;-80
2021/03/24 00:47:53;;;;;;;48.53;27.95;;;4.70;99.90;;;;;;5074833;28;20027;-79
2021/03/24 00:50:22;;;;;;;47.65;27.67;;;4.70;99.90;;;;;;5073433;28;20025;-79
2021/03/24 00:52:47;;;;;;;42.63;25.40;;;4.80;99.90;;;;;;5073430;28;20070;-80
2021/03/24 00:55:14;;;;;;;43.33;25.35;;;4.80;99.90;;;;;;5072194;28;20024;-80
2021/03/24 00:57:40;;;;;;;42.47;24.55;;;4.80;99.90;;;;;;5074261;28;20104;-80
2021/03/24 01:00:09;;;;;;;75.47;39.15;;;4.80;99.90;;;;;;5074614;28;20506;-80
2021/03/24 01:02:34;;;;;;;75.75;40.65;;;4.80;99.90;;;;;;5074689;28;20028;-80
2021/03/24 01:05:04;;;;;;;57.47;33.25;;;4.90;99.90;;;;;;5074174;28;20020;-79
2021/03/24 01:07:29;;;;;;;50.47;28.90;;;4.90;99.90;;;;;;5073426;28;20048;-80
2021/03/24 01:09:55;;;;;;;48.97;29.60;;;4.70;99.90;;;;;;5072984;28;20031;-80
2021/03/24 01:12:20;;;;;;;59.75;32.95;;;4.70;99.90;;;;;;5089114;28;20048;-79
2021/03/24 01:14:46;;;;;;;57.05;32.63;;;4.70;99.90;;;;;;5072858;28;20454;-80
2021/03/24 01:17:11;;;;;;;64.28;33.47;;;4.80;99.90;;;;;;5072824;28;20048;-80
2021/03/24 01:19:37;;;;;;;70.82;39.83;;;4.80;99.90;;;;;;5073214;28;20042;-80
2021/03/24 01:22:03;;;;;;;84.57;45.60;;;4.80;99.90;;;;;;5074057;28;20390;-80
2021/03/24 01:24:28;;;;;;;85.43;45.17;;;4.80;99.90;;;;;;5072842;28;20035;-80
2021/03/24 01:26:54;;;;;;;82.95;45.92;;;4.80;99.90;;;;;;5072719;28;20111;-80
2021/03/24 01:29:19;;;;;;;90.75;48.92;;;4.80;99.90;;;;;;5072709;28;20066;-80
2021/03/24 01:31:45;;;;;;;94.50;49.83;;;4.80;99.90;;;;;;5072874;28;20021;-80
2021/03/24 01:34:10;;;;;;;74.30;41.42;;;4.80;99.90;;;;;;5073885;28;20423;-80
2021/03/24 01:36:36;;;;;;;93.07;46.95;;;4.80;99.90;;;;;;5072671;28;20479;-80
2021/03/24 01:39:03;;;;;;;98.70;48.47;;;4.80;99.90;;;;;;5072296;28;20098;-79
2021/03/24 01:41:29;;;;;;;86.97;46.25;;;4.80;99.90;;;;;;5073746;28;20027;-80
2021/03/24 01:43:56;;;;;;;73.25;39.35;;;4.80;99.90;;;;;;5072603;28;20020;-80
2021/03/24 01:46:31;;;;;;;61.20;34.08;;;4.70;99.90;;;;;;5072240;28;20476;-80
2021/03/24 01:49:04;;;;;;;113.38;55.70;;;4.70;99.90;;;;;;5072725;28;20030;-80
2021/03/24 01:51:44;;;;;;;103.80;53.50;;;4.70;99.90;;;;;;5072259;28;20024;-80
2021/03/24 01:54:13;;;;;;;103.93;52.60;;;4.70;99.90;;;;;;5072469;28;20025;-80
2021/03/24 01:56:41;;;;;;;82.15;43.80;;;4.60;99.90;;;;;;5073330;28;20028;-80
2021/03/24 01:59:07;;;;;;;67.35;37.38;;;4.60;99.90;;;;;;5072311;28;20021;-80
2021/03/24 02:01:33;;;;;;;105.68;53.53;;;4.60;99.90;;;;;;5073405;28;20092;-80
2021/03/24 02:03:58;;;;;;;92.28;48.97;;;4.60;99.90;;;;;;5072126;28;20025;-80
2021/03/24 02:06:59;;;;;;;85.03;46.67;;;4.60;99.90;;;;;;5072913;28;20505;-80
2021/03/24 02:09:24;;;;;;;102.57;53.45;;;4.70;99.90;;;;;;5072098;28;20476;-80
2021/03/24 02:12:14;;;;;;;108.75;53.85;;;4.60;99.90;;;;;;5073098;28;20073;-80
2021/03/24 02:14:45;;;;;;;113.20;55.15;;;4.60;99.90;;;;;;5071563;28;20127;-80
2021/03/24 02:17:12;;;;;;;94.53;49.97;;;4.60;99.90;;;;;;5071570;28;20055;-80
2021/03/24 02:19:57;;;;;;;99.70;52.20;;;4.60;99.90;;;;;;5071936;28;20031;-80
2021/03/24 02:22:27;;;;;;;112.60;55.95;;;4.50;99.90;;;;;;5072858;28;20024;-79
2021/03/24 02:25:19;;;;;;;118.57;57.47;;;4.50;99.90;;;;;;5071719;28;20017;-80
2021/03/24 02:27:50;;;;;;;117.93;57.92;;;4.50;99.90;;;;;;5072924;28;20028;-80
2021/03/24 02:30:20;;;;;;;95.13;51.10;;;4.40;99.90;;;;;;5071777;28;20028;-80
2021/03/24 02:32:55;;;;;;;99.80;50.90;;;4.40;99.90;;;;;;5072922;28;20068;-80
2021/03/24 02:35:26;;;;;;;95.80;48.65;;;4.40;99.90;;;;;;5071282;28;20364;-79
2021/03/24 02:37:54;;;;;;;102.47;50.33;;;4.30;99.90;;;;;;5072684;28;20050;-80
2021/03/24 02:40:21;;;;;;;95.18;49.83;;;4.30;99.90;;;;;;5071451;28;20476;-80
2021/03/24 02:42:49;;;;;;;99.18;50.65;;;4.20;99.90;;;;;;5071293;28;20028;-80
2021/03/24 02:45:20;;;;;;;109.75;54.58;;;4.20;99.90;;;;;;5082627;28;20043;-80
2021/03/24 02:47:47;;;;;;;109.78;52.25;;;4.20;99.90;;;;;;5071033;28;20488;-80
2021/03/24 02:50:13;;;;;;;94.53;48.65;;;4.20;99.90;;;;;;5071383;28;20024;-80
2021/03/24 02:52:40;;;;;;;89.60;47.97;;;4.30;99.90;;;;;;5071175;28;20028;-80
2021/03/24 02:55:07;;;;;;;92.25;47.63;;;4.20;99.90;;;;;;5069865;28;20028;-80
2021/03/24 02:57:33;;;;;;;94.57;48.17;;;4.20;99.90;;;;;;5072134;28;20024;-80
2021/03/24 02:59:59;;;;;;;84.68;43.50;;;4.20;99.90;;;;;;5071071;28;20024;-80
2021/03/24 03:02:28;;;;;;;85.13;45.38;;;4.20;99.90;;;;;;5070928;28;20381;-80
2021/03/24 03:05:06;;;;;;;98.80;49.00;;;4.20;99.90;;;;;;5072203;28;20023;-80
2021/03/24 03:07:35;;;;;;;103.20;53.83;;;4.20;99.90;;;;;;5072315;28;20021;-80
2021/03/24 03:10:11;;;;;;;104.32;53.05;;;4.20;99.90;;;;;;5072230;28;20025;-80
2021/03/24 03:13:04;;;;;;;105.05;49.95;;;4.20;99.90;;;;;;5070842;28;20475;-80
2021/03/24 03:15:45;;;;;;;112.13;54.03;;;4.20;99.90;;;;;;5070688;28;20071;-80
2021/03/24 03:18:18;;;;;;;124.22;57.45;;;4.20;99.90;;;;;;5070477;28;20108;-80
2021/03/24 03:20:47;;;;;;;105.32;53.38;;;4.10;99.90;;;;;;5072049;28;20095;-80
2021/03/24 03:23:17;;;;;;;95.35;51.03;;;4.10;99.90;;;;;;5070757;28;20044;-80
2021/03/24 03:25:49;;;;;;;90.53;46.88;;;4.10;99.90;;;;;;5070606;28;20111;-80
2021/03/24 03:28:17;;;;;;;98.05;49.58;;;4.10;99.90;;;;;;5071840;28;20489;-80
2021/03/24 03:30:48;;;;;;;101.70;51.35;;;4.00;99.90;;;;;;5070651;28;20432;-80
2021/03/24 03:33:16;;;;;;;105.95;53.05;;;4.00;99.90;;;;;;5070808;28;20023;-80
2021/03/24 03:35:41;;;;;;;115.03;57.78;;;4.00;99.90;;;;;;5070114;28;20013;-79
2021/03/24 03:38:13;;;;;;;130.80;59.50;;;3.90;99.90;;;;;;5072032;28;20028;-80
2021/03/24 03:40:41;;;;;;;120.32;58.25;;;3.90;99.90;;;;;;5070514;28;20025;-80
2021/03/24 03:43:11;;;;;;;109.65;52.97;;;3.90;99.90;;;;;;5068001;28;20021;-80
2021/03/24 03:45:39;;;;;;;101.53;49.85;;;3.90;99.90;;;;;;5070858;28;20050;-80
2021/03/24 03:48:08;;;;;;;91.18;47.03;;;3.80;99.90;;;;;;5070440;28;20495;-80
2021/03/24 03:50:34;;;;;;;93.60;47.00;;;3.80;99.90;;;;;;5070600;28;20034;-80
2021/03/24 03:53:24;;;;;;;83.32;45.38;;;3.80;99.90;;;;;;5070492;28;20100;-80
2021/03/24 03:55:52;;;;;;;;;;;3.70;99.90;;;;;;5070936;28;20027;-80
2021/03/24 03:58:49;;;;;;;80.57;43.15;;;3.60;99.90;;;;;;5070253;28;19915;-80
2021/03/24 04:01:23;;;;;;;77.57;42.22;;;3.60;99.90;;;;;;5087100;28;20020;-80
2021/03/24 04:03:54;;;;;;;84.22;44.22;;;3.60;99.90;;;;;;5070471;28;20093;-80
2021/03/24 04:06:25;;;;;;;83.55;43.97;;;3.60;99.90;;;;;;5071504;28;20029;-80
2021/03/24 04:08:52;;;;;;;78.32;40.65;;;3.60;99.90;;;;;;5069801;28;20542;-80
2021/03/24 04:11:22;;;;;;;74.25;42.35;;;3.60;99.90;;;;;;5071499;28;20037;-80
2021/03/24 04:13:52;;;;;;;91.40;48.45;;;3.60;99.90;;;;;;5067876;28;20044;-80
2021/03/24 04:16:18;;;;;;;99.38;52.92;;;3.50;99.90;;;;;;5071169;28;20059;-80
2021/03/24 04:18:53;;;;;;;114.75;55.45;;;3.50;99.90;;;;;;5068311;28;20103;-79
2021/03/24 04:21:22;;;;;;;106.72;52.10;;;3.50;99.90;;;;;;5071651;28;20021;-80
2021/03/24 04:24:01;;;;;;;93.03;48.78;;;3.50;99.90;;;;;;5070108;28;20016;-80
2021/03/24 04:26:44;;;;;;;93.95;48.85;;;3.50;99.90;;;;;;5071489;28;20013;-80
2021/03/24 04:29:23;;;;;;;89.10;47.85;;;3.50;99.90;;;;;;5070089;28;20024;-79
2021/03/24 04:31:53;;;;;;;;;;;3.50;99.90;;;;;;5074478;28;20111;-80
2021/03/24 04:34:20;;;;;;;57.92;31.70;;;3.40;99.90;;;;;;5074899;28;19954;-80
2021/03/24 04:36:54;;;;;;;51.78;28.42;;;3.30;99.90;;;;;;5075067;28;20025;-80
2021/03/24 04:39:53;;;;;;;41.58;23.33;;;3.20;99.90;;;;;;5073699;28;20020;-80
2021/03/24 04:42:35;;;;;;;38.07;21.57;;;3.20;99.90;;;;;;5070126;28;20078;-80
2021/03/24 04:45:13;;;;;;;35.65;20.65;;;3.20;99.90;;;;;;5056454;28;20777;-79
2021/03/24 04:47:39;;;;;;;40.20;23.40;;;3.20;99.90;;;;;;5087629;28;20396;-80
2021/03/24 04:50:14;;;;;;;50.38;28.27;;;3.20;99.90;;;;;;5074836;28;20024;-80
2021/03/24 04:52:39;;;;;;;77.03;38.45;;;3.30;99.90;;;;;;5073531;28;20028;-80
2021/03/24 04:55:12;;;;;;;70.22;39.92;;;3.30;99.90;;;;;;5074672;28;20025;-80
2021/03/24 04:57:38;;;;;;;77.15;42.92;;;3.20;99.90;;;;;;5073279;28;20021;-79
2021/03/24 05:00:37;;;;;;;69.95;39.10;;;3.20;99.90;;;;;;5074528;28;20446;-80
2021/03/24 05:03:09;;;;;;;79.55;42.45;;;3.20;99.90;;;;;;5073314;28;20024;-80
2021/03/24 05:05:42;;;;;;;75.60;40.70;;;3.20;99.90;;;;;;5073332;28;20024;-79
2021/03/24 05:08:42;;;;;;;86.20;46.67;;;3.20;99.90;;;;;;5074460;28;20025;-80
2021/03/24 05:11:15;;;;;;;83.60;46.25;;;3.20;99.90;;;;;;5074628;28;20375;-80
2021/03/24 05:13:50;;;;;;;85.90;45.80;;;3.10;99.90;;;;;;5073192;28;20122;-79
2021/03/24 05:16:31;;;;;;;87.57;47.45;;;3.10;99.90;;;;;;5072626;28;20493;-80
2021/03/24 05:18:58;;;;;;;89.35;48.15;;;3.20;99.90;;;;;;5071611;28;20017;-80
2021/03/24 05:21:46;;;;;;;84.28;43.33;;;3.10;99.90;;;;;;5074295;28;20031;-80
2021/03/24 05:24:14;;;;;;;82.65;44.15;;;3.20;99.90;;;;;;5073928;28;20013;-80
2021/03/24 05:26:45;;;;;;;78.18;40.60;;;3.20;99.90;;;;;;5072769;28;20026;-80
2021/03/24 05:29:18;;;;;;;72.90;40.25;;;3.20;99.90;;;;;;5074120;28;20042;-80
2021/03/24 05:31:47;;;;;;;81.45;45.03;;;3.30;99.90;;;;;;5072659;28;20434;-80
2021/03/24 05:34:22;;;;;;;88.28;47.20;;;3.30;99.90;;;;;;5072732;28;20031;-80
2021/03/24 05:36:49;;;;;;;86.82;47.17;;;3.40;99.90;;;;;;5072584;28;20379;-80
2021/03/24 05:39:25;;;;;;;95.13;48.20;;;3.30;99.90;;;;;;5072623;28;20017;-80
2021/03/24 05:42:14;;;;;;;94.90;49.20;;;3.30;99.90;;;;;;5072062;28;20031;-80
2021/03/24 05:44:56;;;;;;;111.88;54.78;;;3.30;99.90;;;;;;5073676;28;20096;-80
2021/03/24 05:47:43;;;;;;;99.95;51.03;;;3.30;99.90;;;;;;5073629;28;20040;-80
2021/03/24 05:50:49;;;;;;;103.25;53.70;;;3.30;99.90;;;;;;5072558;28;20452;-80
2021/03/24 05:53:35;;;;;;;108.25;52.55;;;3.30;99.90;;;;;;5072301;28;20027;-80
2021/03/24 05:56:11;;;;;;;105.25;55.45;;;3.30;99.90;;;;;;5072203;28;20724;-80
2021/03/24 05:59:06;;;;;;;94.25;48.33;;;3.30;99.90;;;;;;5088391;28;20048;-80
2021/03/24 06:01:54;;;;;;;88.57;47.00;;;3.40;99.90;;;;;;5072104;28;20020;-79
2021/03/24 06:04:38;;;;;;;79.85;42.95;;;3.40;99.90;;;;;;5072270;28;20388;-80
2021/03/24 06:07:32;;;;;;;90.18;47.05;;;3.30;99.90;;;;;;5073127;28;20484;-80
2021/03/24 06:10:35;;;;;;;95.53;48.63;;;3.30;99.90;;;;;;5086279;28;20025;-80
2021/03/24 06:13:33;;;;;;;78.70;41.97;;;3.30;99.90;;;;;;5073292;28;20024;-80
2021/03/24 06:16:43;;;;;;;75.32;40.03;;;3.30;99.90;;;;;;5034601;28;20119;-80
2021/03/24 06:19:39;;;;;;;79.30;40.72;;;3.30;99.90;;;;;;5000651;28;20097;-84
2021/03/24 06:22:26;;;;;;;84.78;44.90;;;3.40;99.90;;;;;;5053068;28;20112;-80
2021/03/24 06:25:02;;;;;;;82.45;44.20;;;3.40;99.90;;;;;;5061636;28;20094;-80
2021/03/24 06:27:36;;;;;;;81.30;44.50;;;3.30;99.90;;;;;;5051969;28;20051;-80
2021/03/24 06:30:20;;;;;;;92.57;49.65;;;3.30;99.90;;;;;;5064240;28;20511;-79
2021/03/24 06:33:24;;;;;;;92.32;46.78;;;3.30;99.90;;;;;;5072147;28;20025;-80
2021/03/24 06:36:28;;;;;;;86.15;46.33;;;3.40;99.90;;;;;;5072056;28;20021;-79
2021/03/24 06:39:22;;;;;;;89.70;46.03;;;3.40;99.90;;;;;;5073379;28;20099;-80
2021/03/24 06:42:04;;;;;;;80.57;42.97;;;3.50;99.90;;;;;;5073023;28;20048;-79
2021/03/24 06:44:58;;;;;;;71.70;38.25;;;3.50;99.90;;;;;;5073324;28;20439;-79
2021/03/24 06:47:45;;;;;;;69.43;38.80;;;3.60;99.90;;;;;;5071242;28;20113;-79
2021/03/24 06:50:28;;;;;;;73.90;40.67;;;3.60;99.90;;;;;;5071869;28;20054;-80
2021/03/24 06:53:12;;;;;;;80.57;41.85;;;3.70;99.90;;;;;;5087551;28;20395;-80
2021/03/24 06:56:31;;;;;;;77.88;38.97;;;3.70;99.90;;;;;;5071740;28;20024;-80
2021/03/24 06:59:18;;;;;;;84.70;44.33;;;3.90;99.90;;;;;;5073154;28;20108;-79
2021/03/24 07:02:18;;;;;;;88.53;44.38;;;3.90;99.90;;;;;;5072166;28;20377;-80
2021/03/24 07:05:23;;;;;;;89.85;47.30;;;4.00;99.90;;;;;;5018794;28;20510;-80
2021/03/24 07:07:57;;;;;;;90.78;48.25;;;4.10;99.90;;;;;;5072450;28;20115;-80
2021/03/24 07:10:56;;;;;;;91.35;48.85;;;4.10;99.90;;;;;;5071739;28;20103;-79
2021/03/24 07:13:34;;;;;;;84.20;46.47;;;4.20;99.90;;;;;;5072066;28;20025;-79
2021/03/24 07:16:09;;;;;;;94.38;48.22;;;4.30;99.90;;;;;;5071454;28;20513;-79
2021/03/24 07:18:51;;;;;;;86.78;46.95;;;4.40;99.90;;;;;;5073078;28;20024;-79
2021/03/24 07:21:35;;;;;;;97.57;50.70;;;4.40;99.90;;;;;;5072865;28;20020;-78
2021/03/24 07:24:32;;;;;;;92.50;50.95;;;4.50;99.90;;;;;;5070426;28;20017;-79
2021/03/24 07:27:09;;;;;;;96.05;50.00;;;4.60;99.90;;;;;;5069931;28;20024;-80
2021/03/24 07:29:47;;;;;;;94.20;49.38;;;4.60;99.90;;;;;;5071183;28;20031;-80
2021/03/24 07:32:37;;;;;;;92.63;50.00;;;4.70;99.90;;;;;;5070946;28;20029;-79
2021/03/24 07:35:27;;;;;;;90.50;48.28;;;4.80;99.90;;;;;;5070209;28;20024;-79
2021/03/24 07:38:06;;;;;;;88.63;48.28;;;4.90;99.90;;;;;;5071577;28;20052;-79
2021/03/24 07:40:58;;;;;;;92.53;49.13;;;5.00;99.90;;;;;;5072551;28;20383;-79
2021/03/24 07:43:55;;;;;;;98.10;51.40;;;5.10;99.90;;;;;;5070710;28;20016;-79
2021/03/24 07:47:05;;;;;;;93.18;50.15;;;5.20;99.90;;;;;;5085482;28;20039;-80
2021/03/24 07:50:03;;;;;;;96.20;52.58;;;5.30;99.90;;;;;;4987253;28;20161;-79
2021/03/24 07:53:02;;;;;;;93.40;49.85;;;5.40;99.90;;;;;;5001009;28;20045;-79
2021/03/24 07:55:30;;;;;;;102.03;53.88;;;5.60;99.90;;;;;;5048548;28;20040;-79
2021/03/24 07:58:36;;;;;;;96.07;52.85;;;5.70;99.90;;;;;;5062109;28;20032;-80
2021/03/24 08:01:20;;;;;;;96.97;51.33;;;5.80;99.90;;;;;;5058183;28;20017;-79
2021/03/24 08:03:59;;;;;;;99.65;52.40;;;5.90;99.90;;;;;;5069003;28;20071;-79
2021/03/24 08:06:28;;;;;;;107.88;54.88;;;6.00;99.90;;;;;;5074106;28;20021;-79
2021/03/24 08:09:15;;;;;;;92.78;52.38;;;6.10;99.90;;;;;;5073814;28;20075;-80
2021/03/24 08:11:52;;;;;;;94.10;51.97;;;6.20;99.90;;;;;;5049587;28;20496;-79
2021/03/24 08:14:32;;;;;;;100.30;54.53;;;6.30;99.90;;;;;;5062832;28;20039;-79
2021/03/24 08:17:03;;;;;;;91.28;50.42;;;6.40;99.90;;;;;;5085989;28;20064;-79
2021/03/24 08:20:03;;;;;;;106.63;56.55;;;6.50;99.90;;;;;;5074503;28;20119;-79
2021/03/24 08:22:50;;;;;;;99.13;53.07;;;6.70;99.90;;;;;;5074678;28;20024;-79
2021/03/24 08:25:35;;;;;;;100.28;55.35;;;6.80;99.90;;;;;;5074668;28;20345;-79
2021/03/24 08:28:22;;;;;;;98.43;51.30;;;6.90;99.90;;;;;;5074365;28;20056;-80
2021/03/24 08:31:20;;;;;;;95.43;51.65;;;7.00;99.90;;;;;;5089261;28;20052;-80
2021/03/24 08:34:18;;;;;;;95.82;53.63;;;7.10;99.90;;;;;;5030260;28;20040;-80
2021/03/24 08:37:21;;;;;;;96.65;53.55;;;7.20;99.90;;;;;;5062132;28;20071;-80
2021/03/24 08:40:11;;;;;;;98.18;54.35;;;7.30;99.90;;;;;;5071149;28;20104;-80
2021/03/24 08:42:55;;;;;;;101.97;54.30;;;7.50;99.90;;;;;;5064517;28;20544;-80
2021/03/24 08:45:30;;;;;;;91.00;52.20;;;7.60;99.90;;;;;;5088298;28;20052;-79
2021/03/24 08:48:04;;;;;;;87.25;51.38;;;7.70;99.90;;;;;;5074528;28;20032;-80
2021/03/24 08:50:40;;;;;;;91.50;50.97;;;7.80;99.90;;;;;;5074061;28;20464;-80
2021/03/24 08:53:33;;;;;;;95.65;52.78;;;7.90;99.90;;;;;;5073616;28;20025;-80
2021/03/24 08:56:01;;;;;;;94.47;51.60;;;8.10;99.90;;;;;;5074815;28;20037;-80
2021/03/24 08:58:29;;;;;;;89.32;51.40;;;8.20;99.90;;;;;;5073767;28;20099;-80
2021/03/24 09:01:14;;;;;;;95.75;53.05;;;8.30;99.90;;;;;;5072320;28;20035;-80
2021/03/24 09:03:51;;;;;;;85.72;49.15;;;8.40;99.90;;;;;;5085914;28;20111;-80
2021/03/24 09:06:53;;;;;;;85.82;47.95;;;8.60;99.90;;;;;;5074634;28;20405;-80
2021/03/24 09:09:48;;;;;;;86.43;48.42;;;8.70;99.90;;;;;;5072380;28;20507;-80
2021/03/24 09:12:22;;;;;;;85.85;51.17;;;8.90;99.90;;;;;;5071255;28;20025;-80
2021/03/24 09:15:18;;;;;;;87.72;48.55;;;9.00;99.90;;;;;;5059618;28;20024;-80
2021/03/24 09:18:08;;;;;;;74.68;43.10;;;9.30;99.90;;;;;;5088644;28;20119;-80
2021/03/24 09:20:43;;;;;;;;;;;10.60;99.90;;;;;;5070754;28;20047;-80
2021/03/24 09:23:32;;;;;;;71.30;42.53;;;12.70;99.90;;;;;;5070378;28;19951;-80
2021/03/24 09:26:20;;;;;;;72.75;43.05;;;14.50;94.60;;;;;;5073623;28;20025;-80
2021/03/24 09:29:01;;;;;;;67.93;40.58;;;15.90;90.30;;;;;;5072538;28;20021;-80
2021/03/24 09:31:58;;;;;;;60.53;37.25;;;16.80;85.10;;;;;;5088279;28;20038;-80
2021/03/24 09:34:37;;;;;;;50.88;34.95;;;17.80;80.70;;;;;;5061279;28;20082;-80
2021/03/24 09:37:06;;;;;;;62.95;41.00;;;18.70;77.50;;;;;;5073146;28;20432;-81
2021/03/24 09:39:43;;;;;;;61.10;38.38;;;19.00;71.20;;;;;;5074709;28;20056;-81
2021/03/24 09:42:24;;;;;;;62.95;38.30;;;19.40;69.60;;;;;;5073430;28;20027;-81
2021/03/24 09:44:53;;;;;;;63.65;40.55;;;19.90;67.90;;;;;;5070260;28;20025;-80
2021/03/24 09:47:39;;;;;;;54.55;35.78;;;20.10;62.60;;;;;;5072749;28;20028;-80
2021/03/24 09:50:22;;;;;;;48.08;32.35;;;20.40;62.50;;;;;;5070570;28;20029;-80
2021/03/24 09:52:57;;;;;;;48.17;31.73;;;21.10;62.40;;;;;;5064436;28;20040;-81
2021/03/24 09:55:34;;;;;;;53.17;34.65;;;22.10;59.90;;;;;;5072306;28;20039;-81
2021/03/24 09:58:21;;;;;;;52.13;35.65;;;22.50;56.50;;;;;;5074354;28;20052;-81
2021/03/24 10:01:05;;;;;;;52.53;34.83;;;22.60;54.20;;;;;;5070746;28;20035;-81
2021/03/24 10:03:49;;;;;;;48.33;33.20;;;23.00;52.80;;;;;;5070410;28;20023;-81
2021/03/24 10:06:24;;;;;;;48.50;34.25;;;23.10;51.80;;;;;;5087877;28;20028;-81
2021/03/24 10:09:19;;;;;;;49.30;32.75;;;23.00;50.40;;;;;;5070277;28;20032;-81
2021/03/24 10:11:50;;;;;;;47.22;30.40;;;23.10;49.70;;;;;;5085781;28;20433;-81
2021/03/24 10:14:37;;;;;;;44.30;28.35;;;23.70;48.60;;;;;;5067797;28;20028;-81
2021/03/24 10:17:08;;;;;;;43.13;29.13;;;23.90;48.60;;;;;;5057681;28;20094;-81
2021/03/24 10:19:40;;;;;;;47.92;32.72;;;24.50;47.30;;;;;;5047828;28;20086;-81
2021/03/24 10:22:15;;;;;;;46.88;31.83;;;24.40;45.70;;;;;;5077652;28;20052;-81
2021/03/24 10:24:45;;;;;;;45.47;31.05;;;24.70;45.30;;;;;;5072392;28;20111;-81
2021/03/24 10:27:19;;;;;;;40.35;27.33;;;25.10;45.10;;;;;;5072076;28;20471;-81
2021/03/24 10:29:50;;;;;;;39.22;29.33;;;25.20;44.40;;;;;;5071356;28;20025;-81
2021/03/24 10:32:32;;;;;;;39.30;29.02;;;25.30;43.60;;;;;;5071928;28;20050;-81
2021/03/24 10:35:15;;;;;;;43.10;32.22;;;25.30;43.40;;;;;;5070752;28;20036;-81
2021/03/24 10:37:57;;;;;;;45.78;34.33;;;25.30;42.30;;;;;;5070779;28;20024;-81
2021/03/24 10:40:28;;;;;;;41.47;30.45;;;24.50;41.20;;;;;;5088182;28;20112;-81
2021/03/24 10:43:01;;;;;;;38.28;27.35;;;23.90;43.40;;;;;;5071538;28;20105;-80
2021/03/24 10:45:28;;;;;;;44.72;32.03;;;24.50;43.40;;;;;;5066582;28;20020;-81
2021/03/24 10:48:10;;;;;;;40.15;28.05;;;24.20;41.70;;;;;;5082385;28;20070;-84
2021/03/24 10:50:38;;;;;;;42.20;30.90;;;24.10;44.20;;;;;;5068699;28;20025;-89
2021/03/24 10:53:29;;;;;;;40.58;28.15;;;24.50;42.90;;;;;;5061581;28;20028;-82
2021/03/24 10:56:23;;;;;;;38.70;29.45;;;24.70;42.10;;;;;;5062818;28;20021;-82
2021/03/24 10:58:53;;;;;;;40.50;27.65;;;24.30;41.90;;;;;;5070884;28;20036;-83
2021/03/24 11:01:31;;;;;;;36.92;27.30;;;24.20;42.60;;;;;;5071201;28;20028;-83
2021/03/24 11:04:02;;;;;;;38.40;28.52;;;24.30;42.20;;;;;;5071417;28;20100;-82
2021/03/24 11:06:33;;;;;;;36.55;26.92;;;24.30;41.30;;;;;;5052919;28;20028;-81
2021/03/24 11:09:10;;;;;;;34.20;24.00;;;23.90;41.60;;;;;;5044708;28;20031;-82
2021/03/24 11:11:43;;;;;;;33.17;24.90;;;24.00;42.80;;;;;;5059284;28;20027;-82
2021/03/24 11:14:17;;;;;;;32.85;24.50;;;24.00;40.80;;;;;;5086230;28;20016;-82
2021/03/24 11:17:07;;;;;;;37.67;27.38;;;23.70;41.30;;;;;;5071060;28;20155;-82
2021/03/24 11:19:45;;;;;;;35.25;25.55;;;23.70;41.50;;;;;;5071666;28;20020;-82
2021/03/24 11:22:10;;;;;;;31.58;24.23;;;23.90;42.10;;;;;;5069417;28;20024;-82
2021/03/24 11:25:01;;;;;;;39.08;27.65;;;24.70;42.30;;;;;;5088256;28;20020;-82
2021/03/24 11:27:43;;;;;;;32.90;23.63;;;25.10;40.00;;;;;;5088365;28;20024;-82
2021/03/24 11:30:20;;;;;;;34.03;25.80;;;25.00;40.80;;;;;;5088365;28;20028;-83
2021/03/24 11:32:58;;;;;;;33.97;26.80;;;25.00;39.80;;;;;;5088386;28;20056;-82
2021/03/24 11:35:43;;;;;;;32.45;24.98;;;25.00;39.30;;;;;;5070639;28;20025;-83
2021/03/24 11:38:47;;;;;;;31.02;22.95;;;25.30;39.40;;;;;;5070949;28;20056;-84
2021/03/24 11:41:22;;;;;;;35.30;24.10;;;25.20;39.30;;;;;;5086657;28;20028;-84
2021/03/24 11:43:57;;;;;;;33.70;23.42;;;24.30;40.10;;;;;;5071128;28;20020;-82
2021/03/24 11:46:30;;;;;;;33.42;24.77;;;23.70;41.50;;;;;;5077162;28;20039;-82
2021/03/24 11:49:14;;;;;;;32.13;24.45;;;23.40;41.40;;;;;;5070849;28;20039;-82
2021/03/24 11:52:17;;;;;;;29.60;21.95;;;23.10;41.80;;;;;;5069645;28;20476;-82
2021/03/24 11:54:48;;;;;;;28.42;21.75;;;23.00;41.00;;;;;;5069956;28;20044;-82
2021/03/24 11:57:49;;;;;;;31.50;23.17;;;23.40;40.50;;;;;;5071827;28;20020;-82
2021/03/24 12:00:39;;;;;;;37.58;24.73;;;23.40;41.40;;;;;;5071673;28;20490;-82
2021/03/24 12:03:29;;;;;;;34.38;24.05;;;23.10;41.70;;;;;;5070368;28;20016;-82
2021/03/24 12:05:59;;;;;;;35.10;24.40;;;23.20;41.10;;;;;;5071525;28;20047;-82
2021/03/24 12:08:41;;;;;;;35.03;23.42;;;23.30;40.60;;;;;;5068975;28;20028;-82
2021/03/24 12:11:19;;;;;;;30.05;23.02;;;23.10;40.50;;;;;;5069549;28;20103;-82
2021/03/24 12:13:45;;;;;;;29.60;22.02;;;23.50;39.20;;;;;;5085601;28;20048;-82
2021/03/24 12:16:19;;;;;;;33.10;23.40;;;23.30;40.10;;;;;;5071543;28;20736;-83
2021/03/24 12:18:55;;;;;;;34.55;24.10;;;23.40;39.40;;;;;;5068818;28;20059;-82
2021/03/24 12:21:34;;;;;;;31.15;22.95;;;23.90;39.60;;;;;;5069659;28;20032;-83
2021/03/24 12:24:02;;;;;;;36.22;25.02;;;24.20;39.00;;;;;;5076754;28;20017;-83
2021/03/24 12:26:29;;;;;;;32.45;23.20;;;24.30;38.10;;;;;;5071716;28;20021;-82
2021/03/24 12:29:04;;;;;;;29.77;23.35;;;24.30;38.70;;;;;;5070335;28;20048;-82
2021/03/24 12:31:30;;;;;;;33.13;22.85;;;24.30;38.70;;;;;;5070535;28;20029;-82
2021/03/24 12:33:59;;;;;;;27.45;22.00;;;24.20;38.70;;;;;;5070366;28;20059;-83
2021/03/24 12:36:27;;;;;;;30.33;22.73;;;24.40;39.30;;;;;;5070306;28;20032;-83
2021/03/24 12:39:01;;;;;;;34.97;23.90;;;24.50;39.20;;;;;;5071522;28;20025;-83
2021/03/24 12:41:40;;;;;;;33.60;22.55;;;24.80;39.10;;;;;;5071742;28;20028;-82
2021/03/24 12:44:11;;;;;;;33.53;24.40;;;24.90;39.80;;;;;;5070887;28;20114;-82
2021/03/24 12:46:51;;;;;;;30.25;22.73;;;24.70;38.10;;;;;;5070726;28;20442;-82
2021/03/24 12:49:20;;;;;;;32.45;24.42;;;24.00;39.40;;;;;;5070848;28;20392;-82
2021/03/24 12:51:57;;;;;;;31.67;22.73;;;23.90;39.80;;;;;;5072522;28;20024;-82
2021/03/24 12:54:24;;;;;;;31.38;22.60;;;24.00;39.20;;;;;;5075599;28;20431;-82
2021/03/24 12:57:22;;;;;;;28.33;22.65;;;24.20;39.30;;;;;;5089698;28;20037;-82
2021/03/24 13:00:10;;;;;;;31.25;21.77;;;24.00;38.80;;;;;;5074067;28;20484;-82
2021/03/24 13:02:53;;;;;;;29.33;20.90;;;23.60;39.10;;;;;;5075139;28;20078;-82
2021/03/24 13:05:27;;;;;;;28.15;21.60;;;23.70;39.30;;;;;;5054106;28;20025;-82
2021/03/24 13:08:03;;;;;;;26.67;19.70;;;24.00;39.80;;;;;;5070531;28;20056;-82
2021/03/24 13:10:51;;;;;;;28.17;20.00;;;24.20;38.70;;;;;;5052862;28;20071;-82
2021/03/24 13:13:28;;;;;;;27.15;20.20;;;25.10;38.10;;;;;;5074117;28;20525;-81
2021/03/24 13:16:03;;;;;;;26.00;19.08;;;25.10;36.70;;;;;;5073481;28;20066;-81
2021/03/24 13:18:40;;;;;;;30.27;21.90;;;25.00;37.40;;;;;;5074944;28;20105;-82
2021/03/24 13:21:18;;;;;;;27.65;21.02;;;25.40;36.90;;;;;;5068839;28;20392;-81
2021/03/24 13:24:20;;;;;;;26.63;19.48;;;24.70;36.90;;;;;;5049112;28;20105;-81
2021/03/24 13:26:47;;;;;;;29.52;21.20;;;24.40;37.40;;;;;;5080824;28;20071;-82